sensor_id;sensor_type;location;lat;lon;timestamp;P1;durP1;ratioP1;P2;durP2;ratioP2
5295;SDS011;2670;42.720;23.336;2023-11-21T00:00:40;99.73;;;40.07;;
5295;SDS011;2670;42.720;23.336;2023-11-21T00:03:07;91.07;;;40.70;;
5295;SDS011;2670;42.720;23.336;2023-11-21T00:05:34;81.40;;;35.77;;
5295;SDS011;2670;42.720;23.336;2023-11-21T00:08:01;73.30;;;37.50;;
5295;SDS011;2670;42.720;23.336;2023-11-21T00:10:28;72.67;;;31.60;;
5295;SDS011;2670;42.720;23.336;2023-11-21T00:12:54;65.83;;;31.97;;
5295;SDS011;2670;42.720;23.336;2023-11-21T00:21:28;62.50;;;30.53;;
5295;SDS011;2670;42.720;23.336;2023-11-21T00:23:54;79.00;;;30.87;;
5295;SDS011;2670;42.720;23.336;2023-11-21T00:26:21;67.83;;;29.87;;
5295;SDS011;2670;42.720;23.336;2023-11-21T00:28:49;64.07;;;28.13;;
5295;SDS011;2670;42.720;23.336;2023-11-21T00:31:15;71.60;;;31.83;;
5295;SDS011;2670;42.720;23.336;2023-11-21T00:33:42;89.43;;;32.97;;
5295;SDS011;2670;42.720;23.336;2023-11-21T00:36:08;87.67;;;34.47;;
5295;SDS011;2670;42.720;23.336;2023-11-21T00:38:36;82.43;;;36.40;;
5295;SDS011;2670;42.720;23.336;2023-11-21T00:41:05;80.73;;;36.73;;
5295;SDS011;2670;42.720;23.336;2023-11-21T00:43:31;75.43;;;32.27;;
5295;SDS011;2670;42.720;23.336;2023-11-21T00:45:58;76.70;;;35.13;;
5295;SDS011;2670;42.720;23.336;2023-11-21T00:48:25;79.43;;;33.93;;
5295;SDS011;2670;42.720;23.336;2023-11-21T00:50:51;68.53;;;32.77;;
5295;SDS011;2670;42.720;23.336;2023-11-21T00:53:18;66.93;;;30.50;;
5295;SDS011;2670;42.720;23.336;2023-11-21T00:55:46;71.90;;;32.00;;
5295;SDS011;2670;42.720;23.336;2023-11-21T00:58:12;73.23;;;30.37;;
5295;SDS011;2670;42.720;23.336;2023-11-21T01:00:39;78.33;;;31.57;;
5295;SDS011;2670;42.720;23.336;2023-11-21T01:03:06;73.63;;;28.83;;
5295;SDS011;2670;42.720;23.336;2023-11-21T01:05:33;66.27;;;29.00;;
5295;SDS011;2670;42.720;23.336;2023-11-21T01:08:00;67.10;;;30.40;;
5295;SDS011;2670;42.720;23.336;2023-11-21T01:10:27;70.20;;;31.53;;
5295;SDS011;2670;42.720;23.336;2023-11-21T01:12:54;64.00;;;29.50;;
5295;SDS011;2670;42.720;23.336;2023-11-21T01:15:23;66.83;;;31.20;;
5295;SDS011;2670;42.720;23.336;2023-11-21T01:17:51;92.73;;;30.93;;
5295;SDS011;2670;42.720;23.336;2023-11-21T01:20:17;71.73;;;32.47;;
5295;SDS011;2670;42.720;23.336;2023-11-21T01:22:44;65.70;;;30.07;;
5295;SDS011;2670;42.720;23.336;2023-11-21T01:25:10;72.63;;;33.87;;
5295;SDS011;2670;42.720;23.336;2023-11-21T01:27:39;68.07;;;32.07;;
5295;SDS011;2670;42.720;23.336;2023-11-21T01:30:08;78.83;;;33.77;;
5295;SDS011;2670;42.720;23.336;2023-11-21T01:32:35;72.90;;;33.00;;
5295;SDS011;2670;42.720;23.336;2023-11-21T01:35:02;68.07;;;32.97;;
5295;SDS011;2670;42.720;23.336;2023-11-21T01:37:30;87.63;;;35.10;;
5295;SDS011;2670;42.720;23.336;2023-11-21T01:39:58;79.80;;;32.10;;
5295;SDS011;2670;42.720;23.336;2023-11-21T01:42:26;74.33;;;32.57;;
5295;SDS011;2670;42.720;23.336;2023-11-21T01:44:54;71.20;;;30.73;;
5295;SDS011;2670;42.720;23.336;2023-11-21T01:47:22;56.23;;;27.97;;
5295;SDS011;2670;42.720;23.336;2023-11-21T01:49:49;67.80;;;28.20;;
5295;SDS011;2670;42.720;23.336;2023-11-21T01:52:15;56.80;;;27.03;;
5295;SDS011;2670;42.720;23.336;2023-11-21T01:54:43;60.50;;;28.33;;
5295;SDS011;2670;42.720;23.336;2023-11-21T01:57:09;57.27;;;27.60;;
5295;SDS011;2670;42.720;23.336;2023-11-21T01:59:36;69.07;;;31.70;;
5295;SDS011;2670;42.720;23.336;2023-11-21T02:02:03;71.87;;;29.57;;
5295;SDS011;2670;42.720;23.336;2023-11-21T02:04:31;68.37;;;31.80;;
5295;SDS011;2670;42.720;23.336;2023-11-21T02:06:58;63.43;;;31.30;;
5295;SDS011;2670;42.720;23.336;2023-11-21T02:09:25;64.00;;;28.70;;
5295;SDS011;2670;42.720;23.336;2023-11-21T02:11:52;65.00;;;28.20;;
5295;SDS011;2670;42.720;23.336;2023-11-21T02:14:19;63.27;;;27.83;;
5295;SDS011;2670;42.720;23.336;2023-11-21T02:16:47;71.30;;;29.30;;
5295;SDS011;2670;42.720;23.336;2023-11-21T02:19:15;53.87;;;26.67;;
5295;SDS011;2670;42.720;23.336;2023-11-21T02:21:45;55.90;;;25.27;;
5295;SDS011;2670;42.720;23.336;2023-11-21T02:24:14;55.10;;;23.67;;
5295;SDS011;2670;42.720;23.336;2023-11-21T02:26:42;45.90;;;23.10;;
5295;SDS011;2670;42.720;23.336;2023-11-21T02:29:09;48.10;;;22.53;;
5295;SDS011;2670;42.720;23.336;2023-11-21T02:31:37;48.67;;;22.67;;
5295;SDS011;2670;42.720;23.336;2023-11-21T02:34:12;47.93;;;22.73;;
5295;SDS011;2670;42.720;23.336;2023-11-21T02:36:39;56.90;;;24.30;;
5295;SDS011;2670;42.720;23.336;2023-11-21T02:39:05;54.30;;;21.40;;
5295;SDS011;2670;42.720;23.336;2023-11-21T02:41:34;51.17;;;21.80;;
5295;SDS011;2670;42.720;23.336;2023-11-21T02:44:01;47.57;;;21.90;;
5295;SDS011;2670;42.720;23.336;2023-11-21T02:46:27;54.90;;;20.67;;
5295;SDS011;2670;42.720;23.336;2023-11-21T02:48:54;39.37;;;21.50;;
5295;SDS011;2670;42.720;23.336;2023-11-21T02:51:20;39.03;;;19.80;;
5295;SDS011;2670;42.720;23.336;2023-11-21T02:53:47;46.80;;;21.23;;
5295;SDS011;2670;42.720;23.336;2023-11-21T02:56:13;45.30;;;20.80;;
5295;SDS011;2670;42.720;23.336;2023-11-21T02:58:43;41.27;;;20.53;;
5295;SDS011;2670;42.720;23.336;2023-11-21T03:01:09;39.83;;;19.63;;
5295;SDS011;2670;42.720;23.336;2023-11-21T03:03:36;41.60;;;20.80;;
5295;SDS011;2670;42.720;23.336;2023-11-21T03:06:05;40.10;;;20.87;;
5295;SDS011;2670;42.720;23.336;2023-11-21T03:08:31;37.90;;;18.27;;
5295;SDS011;2670;42.720;23.336;2023-11-21T03:10:58;39.10;;;20.40;;
5295;SDS011;2670;42.720;23.336;2023-11-21T03:13:25;48.17;;;20.07;;
5295;SDS011;2670;42.720;23.336;2023-11-21T03:15:52;37.50;;;19.13;;
5295;SDS011;2670;42.720;23.336;2023-11-21T03:18:19;46.60;;;21.00;;
5295;SDS011;2670;42.720;23.336;2023-11-21T03:20:47;40.40;;;20.00;;
5295;SDS011;2670;42.720;23.336;2023-11-21T03:23:13;57.20;;;22.30;;
5295;SDS011;2670;42.720;23.336;2023-11-21T03:25:40;45.80;;;22.10;;
5295;SDS011;2670;42.720;23.336;2023-11-21T03:28:06;47.67;;;21.13;;
5295;SDS011;2670;42.720;23.336;2023-11-21T03:30:34;45.83;;;22.60;;
5295;SDS011;2670;42.720;23.336;2023-11-21T03:33:01;48.17;;;26.00;;
5295;SDS011;2670;42.720;23.336;2023-11-21T03:35:28;47.93;;;24.30;;
5295;SDS011;2670;42.720;23.336;2023-11-21T03:37:54;60.10;;;27.43;;
5295;SDS011;2670;42.720;23.336;2023-11-21T03:40:21;54.33;;;26.87;;
5295;SDS011;2670;42.720;23.336;2023-11-21T03:42:48;56.73;;;26.83;;
5295;SDS011;2670;42.720;23.336;2023-11-21T03:45:14;51.47;;;23.70;;
5295;SDS011;2670;42.720;23.336;2023-11-21T03:47:41;57.77;;;24.70;;
5295;SDS011;2670;42.720;23.336;2023-11-21T03:50:09;59.67;;;26.67;;
5295;SDS011;2670;42.720;23.336;2023-11-21T03:52:37;52.77;;;24.93;;
5295;SDS011;2670;42.720;23.336;2023-11-21T03:55:04;48.77;;;25.93;;
5295;SDS011;2670;42.720;23.336;2023-11-21T03:57:30;57.13;;;26.50;;
5295;SDS011;2670;42.720;23.336;2023-11-21T03:59:57;59.23;;;26.47;;
5295;SDS011;2670;42.720;23.336;2023-11-21T04:02:23;55.43;;;28.03;;
5295;SDS011;2670;42.720;23.336;2023-11-21T04:04:51;57.20;;;27.60;;
5295;SDS011;2670;42.720;23.336;2023-11-21T04:07:18;70.23;;;30.40;;
5295;SDS011;2670;42.720;23.336;2023-11-21T04:09:47;69.67;;;27.53;;
5295;SDS011;2670;42.720;23.336;2023-11-21T04:12:13;59.83;;;27.50;;
5295;SDS011;2670;42.720;23.336;2023-11-21T04:14:40;51.20;;;26.17;;
5295;SDS011;2670;42.720;23.336;2023-11-21T04:17:06;57.33;;;29.47;;
5295;SDS011;2670;42.720;23.336;2023-11-21T04:19:33;63.70;;;28.47;;
5295;SDS011;2670;42.720;23.336;2023-11-21T04:21:59;73.87;;;32.00;;
5295;SDS011;2670;42.720;23.336;2023-11-21T04:24:27;79.90;;;32.93;;
5295;SDS011;2670;42.720;23.336;2023-11-21T04:26:54;79.37;;;32.30;;
5295;SDS011;2670;42.720;23.336;2023-11-21T04:29:20;61.13;;;27.00;;
5295;SDS011;2670;42.720;23.336;2023-11-21T04:31:47;52.87;;;26.60;;
5295;SDS011;2670;42.720;23.336;2023-11-21T04:34:15;65.47;;;28.03;;
5295;SDS011;2670;42.720;23.336;2023-11-21T04:36:41;60.13;;;27.87;;
5295;SDS011;2670;42.720;23.336;2023-11-21T04:39:08;53.33;;;24.80;;
5295;SDS011;2670;42.720;23.336;2023-11-21T04:41:36;78.40;;;31.50;;
5295;SDS011;2670;42.720;23.336;2023-11-21T04:44:04;73.03;;;30.87;;
5295;SDS011;2670;42.720;23.336;2023-11-21T04:46:31;61.60;;;26.33;;
5295;SDS011;2670;42.720;23.336;2023-11-21T04:48:57;66.13;;;28.50;;
5295;SDS011;2670;42.720;23.336;2023-11-21T04:51:24;58.50;;;28.63;;
5295;SDS011;2670;42.720;23.336;2023-11-21T04:53:50;75.90;;;29.03;;
5295;SDS011;2670;42.720;23.336;2023-11-21T04:56:17;66.43;;;28.23;;
5295;SDS011;2670;42.720;23.336;2023-11-21T04:58:45;70.17;;;33.67;;
5295;SDS011;2670;42.720;23.336;2023-11-21T05:01:11;61.83;;;32.53;;
5295;SDS011;2670;42.720;23.336;2023-11-21T05:03:38;61.80;;;29.13;;
5295;SDS011;2670;42.720;23.336;2023-11-21T05:06:05;68.03;;;33.00;;
5295;SDS011;2670;42.720;23.336;2023-11-21T05:08:32;62.93;;;27.60;;
5295;SDS011;2670;42.720;23.336;2023-11-21T05:10:58;62.07;;;30.13;;
5295;SDS011;2670;42.720;23.336;2023-11-21T05:13:25;59.40;;;27.93;;
5295;SDS011;2670;42.720;23.336;2023-11-21T05:15:54;57.90;;;27.27;;
5295;SDS011;2670;42.720;23.336;2023-11-21T05:18:20;68.10;;;29.90;;
5295;SDS011;2670;42.720;23.336;2023-11-21T05:20:47;67.10;;;28.00;;
5295;SDS011;2670;42.720;23.336;2023-11-21T05:23:14;67.40;;;26.20;;
5295;SDS011;2670;42.720;23.336;2023-11-21T05:25:40;52.43;;;25.67;;
5295;SDS011;2670;42.720;23.336;2023-11-21T05:28:07;57.37;;;24.90;;
5295;SDS011;2670;42.720;23.336;2023-11-21T05:30:34;52.40;;;23.07;;
5295;SDS011;2670;42.720;23.336;2023-11-21T05:33:01;53.37;;;23.77;;
5295;SDS011;2670;42.720;23.336;2023-11-21T05:35:28;52.80;;;21.80;;
5295;SDS011;2670;42.720;23.336;2023-11-21T05:37:54;47.50;;;22.80;;
5295;SDS011;2670;42.720;23.336;2023-11-21T05:40:21;58.97;;;22.67;;
5295;SDS011;2670;42.720;23.336;2023-11-21T05:42:49;57.37;;;21.93;;
5295;SDS011;2670;42.720;23.336;2023-11-21T05:45:17;53.87;;;26.80;;
5295;SDS011;2670;42.720;23.336;2023-11-21T05:47:44;71.33;;;32.87;;
5295;SDS011;2670;42.720;23.336;2023-11-21T05:50:12;67.23;;;32.73;;
5295;SDS011;2670;42.720;23.336;2023-11-21T05:52:40;87.87;;;39.30;;
5295;SDS011;2670;42.720;23.336;2023-11-21T05:55:07;87.57;;;39.37;;
5295;SDS011;2670;42.720;23.336;2023-11-21T05:57:34;79.63;;;37.10;;
5295;SDS011;2670;42.720;23.336;2023-11-21T06:00:02;70.20;;;33.77;;
5295;SDS011;2670;42.720;23.336;2023-11-21T06:02:29;71.90;;;34.30;;
5295;SDS011;2670;42.720;23.336;2023-11-21T06:04:56;76.87;;;40.17;;
5295;SDS011;2670;42.720;23.336;2023-11-21T06:07:24;64.17;;;29.77;;
5295;SDS011;2670;42.720;23.336;2023-11-21T06:09:51;58.93;;;25.87;;
5295;SDS011;2670;42.720;23.336;2023-11-21T06:12:17;57.90;;;24.77;;
5295;SDS011;2670;42.720;23.336;2023-11-21T06:14:45;50.77;;;24.50;;
5295;SDS011;2670;42.720;23.336;2023-11-21T06:17:13;57.53;;;26.63;;
5295;SDS011;2670;42.720;23.336;2023-11-21T06:19:39;44.17;;;22.90;;
5295;SDS011;2670;42.720;23.336;2023-11-21T06:22:06;51.40;;;25.00;;
5295;SDS011;2670;42.720;23.336;2023-11-21T06:24:34;53.93;;;24.77;;
5295;SDS011;2670;42.720;23.336;2023-11-21T06:27:03;60.23;;;25.87;;
5295;SDS011;2670;42.720;23.336;2023-11-21T06:29:29;55.57;;;25.60;;
5295;SDS011;2670;42.720;23.336;2023-11-21T06:31:57;50.07;;;24.30;;
5295;SDS011;2670;42.720;23.336;2023-11-21T06:34:23;46.17;;;23.40;;
5295;SDS011;2670;42.720;23.336;2023-11-21T06:36:50;51.30;;;25.73;;
5295;SDS011;2670;42.720;23.336;2023-11-21T06:39:16;42.47;;;22.60;;
5295;SDS011;2670;42.720;23.336;2023-11-21T06:41:44;45.87;;;23.33;;
5295;SDS011;2670;42.720;23.336;2023-11-21T06:44:10;60.03;;;22.23;;
5295;SDS011;2670;42.720;23.336;2023-11-21T06:46:37;55.63;;;25.53;;
5295;SDS011;2670;42.720;23.336;2023-11-21T06:49:07;51.93;;;25.83;;
5295;SDS011;2670;42.720;23.336;2023-11-21T06:51:33;52.50;;;27.37;;
5295;SDS011;2670;42.720;23.336;2023-11-21T06:54:00;60.60;;;28.10;;
5295;SDS011;2670;42.720;23.336;2023-11-21T06:56:26;52.90;;;27.23;;
5295;SDS011;2670;42.720;23.336;2023-11-21T06:58:54;64.17;;;22.27;;
5295;SDS011;2670;42.720;23.336;2023-11-21T07:01:21;42.67;;;21.10;;
5295;SDS011;2670;42.720;23.336;2023-11-21T07:03:47;46.00;;;20.50;;
5295;SDS011;2670;42.720;23.336;2023-11-21T07:06:14;44.67;;;22.67;;
5295;SDS011;2670;42.720;23.336;2023-11-21T07:08:40;48.13;;;23.30;;
5295;SDS011;2670;42.720;23.336;2023-11-21T07:11:07;41.63;;;21.30;;
5295;SDS011;2670;42.720;23.336;2023-11-21T07:13:34;43.10;;;22.23;;
5295;SDS011;2670;42.720;23.336;2023-11-21T07:16:02;35.20;;;20.53;;
5295;SDS011;2670;42.720;23.336;2023-11-21T07:18:29;41.93;;;20.90;;
5295;SDS011;2670;42.720;23.336;2023-11-21T07:20:56;45.80;;;19.93;;
5295;SDS011;2670;42.720;23.336;2023-11-21T07:23:23;34.13;;;17.77;;
5295;SDS011;2670;42.720;23.336;2023-11-21T07:25:53;46.87;;;19.30;;
5295;SDS011;2670;42.720;23.336;2023-11-21T07:28:19;41.37;;;20.53;;
5295;SDS011;2670;42.720;23.336;2023-11-21T07:30:46;42.40;;;20.53;;
5295;SDS011;2670;42.720;23.336;2023-11-21T07:33:14;39.60;;;19.87;;
5295;SDS011;2670;42.720;23.336;2023-11-21T07:35:41;39.43;;;19.80;;
5295;SDS011;2670;42.720;23.336;2023-11-21T07:38:07;36.97;;;21.60;;
5295;SDS011;2670;42.720;23.336;2023-11-21T07:40:34;45.60;;;20.00;;
5295;SDS011;2670;42.720;23.336;2023-11-21T07:43:00;49.37;;;21.80;;
5295;SDS011;2670;42.720;23.336;2023-11-21T07:45:27;46.57;;;19.50;;
5295;SDS011;2670;42.720;23.336;2023-11-21T07:47:53;44.00;;;19.17;;
5295;SDS011;2670;42.720;23.336;2023-11-21T07:50:21;33.80;;;18.00;;
5295;SDS011;2670;42.720;23.336;2023-11-21T07:52:48;34.43;;;19.93;;
5295;SDS011;2670;42.720;23.336;2023-11-21T07:55:15;39.20;;;19.43;;
5295;SDS011;2670;42.720;23.336;2023-11-21T07:57:41;35.67;;;19.80;;
5295;SDS011;2670;42.720;23.336;2023-11-21T08:00:08;56.13;;;22.77;;
5295;SDS011;2670;42.720;23.336;2023-11-21T08:02:37;51.73;;;21.40;;
5295;SDS011;2670;42.720;23.336;2023-11-21T08:05:04;45.57;;;22.27;;
5295;SDS011;2670;42.720;23.336;2023-11-21T08:07:33;49.83;;;23.47;;
5295;SDS011;2670;42.720;23.336;2023-11-21T08:10:00;45.93;;;23.70;;
5295;SDS011;2670;42.720;23.336;2023-11-21T08:12:26;45.00;;;24.73;;
5295;SDS011;2670;42.720;23.336;2023-11-21T08:14:53;49.90;;;23.53;;
5295;SDS011;2670;42.720;23.336;2023-11-21T08:17:22;49.83;;;24.97;;
5295;SDS011;2670;42.720;23.336;2023-11-21T08:19:48;59.37;;;27.27;;
5295;SDS011;2670;42.720;23.336;2023-11-21T08:22:16;58.03;;;29.80;;
5295;SDS011;2670;42.720;23.336;2023-11-21T08:24:44;46.30;;;23.17;;
5295;SDS011;2670;42.720;23.336;2023-11-21T08:27:11;49.90;;;24.97;;
5295;SDS011;2670;42.720;23.336;2023-11-21T08:29:41;47.20;;;22.40;;
5295;SDS011;2670;42.720;23.336;2023-11-21T08:32:08;41.83;;;22.40;;
5295;SDS011;2670;42.720;23.336;2023-11-21T08:34:34;45.63;;;23.00;;
5295;SDS011;2670;42.720;23.336;2023-11-21T08:37:01;50.93;;;23.43;;
5295;SDS011;2670;42.720;23.336;2023-11-21T08:39:27;48.40;;;23.27;;
5295;SDS011;2670;42.720;23.336;2023-11-21T08:41:56;42.10;;;19.27;;
5295;SDS011;2670;42.720;23.336;2023-11-21T08:44:23;32.93;;;19.40;;
5295;SDS011;2670;42.720;23.336;2023-11-21T08:46:50;37.17;;;20.70;;
5295;SDS011;2670;42.720;23.336;2023-11-21T08:49:16;49.57;;;20.93;;
5295;SDS011;2670;42.720;23.336;2023-11-21T08:51:44;41.03;;;19.67;;
5295;SDS011;2670;42.720;23.336;2023-11-21T08:54:10;42.37;;;20.73;;
5295;SDS011;2670;42.720;23.336;2023-11-21T08:56:37;42.53;;;22.20;;
5295;SDS011;2670;42.720;23.336;2023-11-21T08:59:04;50.17;;;22.30;;
5295;SDS011;2670;42.720;23.336;2023-11-21T09:01:33;49.03;;;22.53;;
5295;SDS011;2670;42.720;23.336;2023-11-21T09:03:59;53.10;;;24.17;;
5295;SDS011;2670;42.720;23.336;2023-11-21T09:06:25;51.10;;;22.30;;
5295;SDS011;2670;42.720;23.336;2023-11-21T09:08:52;40.50;;;19.43;;
5295;SDS011;2670;42.720;23.336;2023-11-21T09:11:18;42.40;;;22.00;;
5295;SDS011;2670;42.720;23.336;2023-11-21T09:13:45;41.63;;;21.40;;
5295;SDS011;2670;42.720;23.336;2023-11-21T09:16:13;41.90;;;22.37;;
5295;SDS011;2670;42.720;23.336;2023-11-21T09:18:40;43.30;;;20.60;;
5295;SDS011;2670;42.720;23.336;2023-11-21T09:21:07;55.33;;;22.60;;
5295;SDS011;2670;42.720;23.336;2023-11-21T09:23:33;37.43;;;19.90;;
5295;SDS011;2670;42.720;23.336;2023-11-21T09:26:00;29.60;;;17.10;;
5295;SDS011;2670;42.720;23.336;2023-11-21T09:28:26;31.10;;;14.83;;
5295;SDS011;2670;42.720;23.336;2023-11-21T09:30:53;35.27;;;19.20;;
5295;SDS011;2670;42.720;23.336;2023-11-21T09:33:21;45.47;;;19.27;;
5295;SDS011;2670;42.720;23.336;2023-11-21T09:35:50;46.67;;;18.47;;
5295;SDS011;2670;42.720;23.336;2023-11-21T09:38:17;31.33;;;16.23;;
5295;SDS011;2670;42.720;23.336;2023-11-21T09:40:43;22.57;;;12.67;;
5295;SDS011;2670;42.720;23.336;2023-11-21T09:43:14;26.13;;;13.00;;
5295;SDS011;2670;42.720;23.336;2023-11-21T09:45:43;28.80;;;13.87;;
5295;SDS011;2670;42.720;23.336;2023-11-21T09:48:10;24.23;;;13.47;;
5295;SDS011;2670;42.720;23.336;2023-11-21T09:50:38;37.03;;;16.77;;
5295;SDS011;2670;42.720;23.336;2023-11-21T09:53:08;35.30;;;17.00;;
5295;SDS011;2670;42.720;23.336;2023-11-21T09:55:38;39.53;;;16.37;;
5295;SDS011;2670;42.720;23.336;2023-11-21T09:58:05;27.57;;;14.77;;
5295;SDS011;2670;42.720;23.336;2023-11-21T10:00:33;28.13;;;14.90;;
5295;SDS011;2670;42.720;23.336;2023-11-21T10:02:59;41.27;;;18.50;;
5295;SDS011;2670;42.720;23.336;2023-11-21T10:05:27;37.83;;;20.93;;
5295;SDS011;2670;42.720;23.336;2023-11-21T10:07:55;38.80;;;21.37;;
5295;SDS011;2670;42.720;23.336;2023-11-21T10:10:22;48.87;;;20.70;;
5295;SDS011;2670;42.720;23.336;2023-11-21T10:12:50;50.00;;;21.80;;
5295;SDS011;2670;42.720;23.336;2023-11-21T10:15:20;40.33;;;21.30;;
5295;SDS011;2670;42.720;23.336;2023-11-21T10:17:48;46.70;;;21.20;;
5295;SDS011;2670;42.720;23.336;2023-11-21T10:20:14;41.47;;;20.80;;
5295;SDS011;2670;42.720;23.336;2023-11-21T10:22:42;40.00;;;23.07;;
5295;SDS011;2670;42.720;23.336;2023-11-21T10:25:10;41.80;;;21.97;;
5295;SDS011;2670;42.720;23.336;2023-11-21T10:27:39;54.03;;;21.70;;
5295;SDS011;2670;42.720;23.336;2023-11-21T10:30:07;47.53;;;19.97;;
5295;SDS011;2670;42.720;23.336;2023-11-21T10:32:37;34.87;;;19.70;;
5295;SDS011;2670;42.720;23.336;2023-11-21T10:35:04;47.37;;;19.67;;
5295;SDS011;2670;42.720;23.336;2023-11-21T10:37:37;32.30;;;18.40;;
5295;SDS011;2670;42.720;23.336;2023-11-21T10:40:05;35.53;;;19.27;;
5295;SDS011;2670;42.720;23.336;2023-11-21T10:42:33;41.63;;;21.43;;
5295;SDS011;2670;42.720;23.336;2023-11-21T10:45:00;45.00;;;21.37;;
5295;SDS011;2670;42.720;23.336;2023-11-21T10:47:28;37.53;;;18.80;;
5295;SDS011;2670;42.720;23.336;2023-11-21T10:49:54;34.63;;;19.17;;
5295;SDS011;2670;42.720;23.336;2023-11-21T10:52:21;41.17;;;19.87;;
5295;SDS011;2670;42.720;23.336;2023-11-21T10:54:47;35.70;;;18.97;;
5295;SDS011;2670;42.720;23.336;2023-11-21T10:57:15;38.13;;;20.70;;
5295;SDS011;2670;42.720;23.336;2023-11-21T10:59:44;38.47;;;21.37;;
5295;SDS011;2670;42.720;23.336;2023-11-21T11:02:14;35.90;;;19.80;;
5295;SDS011;2670;42.720;23.336;2023-11-21T11:04:47;34.47;;;19.07;;
5295;SDS011;2670;42.720;23.336;2023-11-21T11:07:14;35.10;;;17.93;;
5295;SDS011;2670;42.720;23.336;2023-11-21T11:09:42;32.00;;;16.80;;
5295;SDS011;2670;42.720;23.336;2023-11-21T11:12:09;29.80;;;17.20;;
5295;SDS011;2670;42.720;23.336;2023-11-21T11:14:36;27.10;;;15.73;;
5295;SDS011;2670;42.720;23.336;2023-11-21T11:17:09;31.83;;;15.23;;
5295;SDS011;2670;42.720;23.336;2023-11-21T11:19:36;30.93;;;16.43;;
5295;SDS011;2670;42.720;23.336;2023-11-21T11:22:07;36.17;;;15.83;;
5295;SDS011;2670;42.720;23.336;2023-11-21T11:24:45;37.00;;;17.20;;
5295;SDS011;2670;42.720;23.336;2023-11-21T11:27:18;49.37;;;20.47;;
5295;SDS011;2670;42.720;23.336;2023-11-21T11:29:48;40.27;;;19.67;;
5295;SDS011;2670;42.720;23.336;2023-11-21T11:32:19;36.13;;;20.30;;
5295;SDS011;2670;42.720;23.336;2023-11-21T11:34:49;32.93;;;19.40;;
5295;SDS011;2670;42.720;23.336;2023-11-21T11:37:16;35.57;;;19.30;;
5295;SDS011;2670;42.720;23.336;2023-11-21T11:39:44;34.27;;;20.50;;
5295;SDS011;2670;42.720;23.336;2023-11-21T11:42:12;46.37;;;21.43;;
5295;SDS011;2670;42.720;23.336;2023-11-21T11:44:49;43.30;;;21.10;;
5295;SDS011;2670;42.720;23.336;2023-11-21T11:47:22;45.03;;;23.17;;
5295;SDS011;2670;42.720;23.336;2023-11-21T11:50:02;42.23;;;20.20;;
5295;SDS011;2670;42.720;23.336;2023-11-21T11:52:39;39.70;;;21.47;;
5295;SDS011;2670;42.720;23.336;2023-11-21T11:55:06;37.47;;;17.90;;
5295;SDS011;2670;42.720;23.336;2023-11-21T11:57:35;33.80;;;17.73;;
5295;SDS011;2670;42.720;23.336;2023-11-21T12:00:11;26.03;;;14.20;;
5295;SDS011;2670;42.720;23.336;2023-11-21T12:02:43;37.40;;;16.93;;
5295;SDS011;2670;42.720;23.336;2023-11-21T12:05:10;33.00;;;16.50;;
5295;SDS011;2670;42.720;23.336;2023-11-21T12:07:42;34.77;;;16.37;;
5295;SDS011;2670;42.720;23.336;2023-11-21T12:10:10;50.50;;;21.33;;
5295;SDS011;2670;42.720;23.336;2023-11-21T12:12:37;44.93;;;20.90;;
5295;SDS011;2670;42.720;23.336;2023-11-21T12:15:04;63.73;;;25.43;;
5295;SDS011;2670;42.720;23.336;2023-11-21T12:17:31;58.23;;;23.67;;
5295;SDS011;2670;42.720;23.336;2023-11-21T12:20:02;50.77;;;21.03;;
5295;SDS011;2670;42.720;23.336;2023-11-21T12:22:30;54.37;;;23.70;;
5295;SDS011;2670;42.720;23.336;2023-11-21T12:24:57;48.70;;;25.10;;
5295;SDS011;2670;42.720;23.336;2023-11-21T12:27:24;30.47;;;16.20;;
5295;SDS011;2670;42.720;23.336;2023-11-21T12:29:51;33.93;;;17.63;;
5295;SDS011;2670;42.720;23.336;2023-11-21T12:32:17;33.50;;;18.70;;
5295;SDS011;2670;42.720;23.336;2023-11-21T12:34:44;42.00;;;21.20;;
5295;SDS011;2670;42.720;23.336;2023-11-21T12:37:13;47.10;;;19.13;;
5295;SDS011;2670;42.720;23.336;2023-11-21T12:39:39;25.40;;;14.23;;
5295;SDS011;2670;42.720;23.336;2023-11-21T12:42:06;24.70;;;13.50;;
5295;SDS011;2670;42.720;23.336;2023-11-21T12:44:32;32.73;;;16.60;;
5295;SDS011;2670;42.720;23.336;2023-11-21T12:46:59;28.97;;;15.33;;
5295;SDS011;2670;42.720;23.336;2023-11-21T12:49:26;26.73;;;14.17;;
5295;SDS011;2670;42.720;23.336;2023-11-21T12:51:53;32.97;;;16.63;;
5295;SDS011;2670;42.720;23.336;2023-11-21T12:54:21;37.63;;;15.77;;
5295;SDS011;2670;42.720;23.336;2023-11-21T12:56:49;24.40;;;15.53;;
5295;SDS011;2670;42.720;23.336;2023-11-21T12:59:16;32.53;;;16.07;;
5295;SDS011;2670;42.720;23.336;2023-11-21T13:01:43;30.03;;;15.47;;
5295;SDS011;2670;42.720;23.336;2023-11-21T13:04:10;40.57;;;18.20;;
5295;SDS011;2670;42.720;23.336;2023-11-21T13:06:37;39.20;;;19.20;;
5295;SDS011;2670;42.720;23.336;2023-11-21T13:09:07;29.83;;;17.83;;
5295;SDS011;2670;42.720;23.336;2023-11-21T13:11:37;48.50;;;25.90;;
5295;SDS011;2670;42.720;23.336;2023-11-21T13:14:06;50.40;;;27.80;;
5295;SDS011;2670;42.720;23.336;2023-11-21T13:16:32;37.63;;;18.80;;
5295;SDS011;2670;42.720;23.336;2023-11-21T13:18:59;40.93;;;19.70;;
5295;SDS011;2670;42.720;23.336;2023-11-21T13:21:25;27.77;;;17.10;;
5295;SDS011;2670;42.720;23.336;2023-11-21T13:23:52;46.67;;;17.07;;
5295;SDS011;2670;42.720;23.336;2023-11-21T13:26:19;32.70;;;16.63;;
5295;SDS011;2670;42.720;23.336;2023-11-21T13:28:50;32.53;;;15.40;;
5295;SDS011;2670;42.720;23.336;2023-11-21T13:31:16;42.93;;;17.23;;
5295;SDS011;2670;42.720;23.336;2023-11-21T13:33:52;30.73;;;16.37;;
5295;SDS011;2670;42.720;23.336;2023-11-21T13:36:21;30.60;;;16.00;;
5295;SDS011;2670;42.720;23.336;2023-11-21T13:38:48;44.33;;;21.30;;
5295;SDS011;2670;42.720;23.336;2023-11-21T13:41:15;65.73;;;32.37;;
5295;SDS011;2670;42.720;23.336;2023-11-21T13:43:43;41.43;;;23.83;;
5295;SDS011;2670;42.720;23.336;2023-11-21T13:46:17;50.53;;;26.07;;
5295;SDS011;2670;42.720;23.336;2023-11-21T13:48:47;44.43;;;23.97;;
5295;SDS011;2670;42.720;23.336;2023-11-21T13:51:16;41.60;;;20.93;;
5295;SDS011;2670;42.720;23.336;2023-11-21T13:53:43;45.47;;;24.40;;
5295;SDS011;2670;42.720;23.336;2023-11-21T13:56:10;124.33;;;56.17;;
5295;SDS011;2670;42.720;23.336;2023-11-21T13:58:40;89.47;;;43.20;;
5295;SDS011;2670;42.720;23.336;2023-11-21T14:01:11;46.80;;;25.70;;
5295;SDS011;2670;42.720;23.336;2023-11-21T14:03:59;65.70;;;33.23;;
5295;SDS011;2670;42.720;23.336;2023-11-21T14:06:33;46.33;;;25.10;;
5295;SDS011;2670;42.720;23.336;2023-11-21T14:09:07;37.13;;;22.03;;
5295;SDS011;2670;42.720;23.336;2023-11-21T14:11:34;57.57;;;27.90;;
5295;SDS011;2670;42.720;23.336;2023-11-21T14:14:03;76.87;;;41.90;;
5295;SDS011;2670;42.720;23.336;2023-11-21T14:16:30;49.70;;;27.80;;
5295;SDS011;2670;42.720;23.336;2023-11-21T14:18:58;47.33;;;26.47;;
5295;SDS011;2670;42.720;23.336;2023-11-21T14:21:34;66.00;;;36.47;;
5295;SDS011;2670;42.720;23.336;2023-11-21T14:24:01;56.90;;;29.67;;
5295;SDS011;2670;42.720;23.336;2023-11-21T14:26:28;76.27;;;36.00;;
5295;SDS011;2670;42.720;23.336;2023-11-21T14:28:55;82.30;;;44.63;;
5295;SDS011;2670;42.720;23.336;2023-11-21T14:31:22;68.20;;;38.07;;
5295;SDS011;2670;42.720;23.336;2023-11-21T14:33:49;65.47;;;35.87;;
5295;SDS011;2670;42.720;23.336;2023-11-21T14:36:17;67.00;;;37.30;;
5295;SDS011;2670;42.720;23.336;2023-11-21T14:38:44;72.87;;;40.50;;
5295;SDS011;2670;42.720;23.336;2023-11-21T14:41:10;70.73;;;38.83;;